aviador You're here:

KABR Decoded Metar

ABERDEEN in SD, USA
Report Time2017-07-23 07:53:00
UTC Time2017-07-23 08:38:29
Flight Rules vfr VFR
Wind330° at 04 kt
W.Decomp.*RWY 31: 3.9 kt HW 0.9 kt RCW
RWY 35: 3.6 kt HW 1.8 kt LCW
W.Rank330° ranks 6
Current wind is below 330° avg. (11.7)
Visibility9999 m
Phenomena:N/A
Clouds:N/A
Expected CloudBase > 1,200 ft AGL from Temp-Dew spread
CeilingNone
Temp17°C (ISA +5)
Dew Point14°C (83% RH)
AAT16.9°C
QNH1015 hPa
Density Alt1,991 ft
Elevation1,302 ft
Report Wrong Elevation
Raw Report
KABR 230753Z AUTO 33004KT 10SM CLR 17/14 A2997 RMK AO2 SLP142
T01670144=

Extra information for KABR:More info

Metar Taf Metar & Taf Last 4 Metars F.Rules Stats Wind Profile Meteogram Temp Stats Airport Information Weather charts Add Link Nearby VenuesMetar ALERT Operation Metar Decoded Social comments

AIRNAV info for KABR